createdAt,value
2019-03-10T00:00:51.190Z,1008.55
2019-03-10T00:01:51.205Z,1008.50
2019-03-10T00:02:51.156Z,1008.51
2019-03-10T00:03:51.134Z,1008.46
2019-03-10T00:04:51.189Z,1008.48
2019-03-10T00:05:51.151Z,1008.40
2019-03-10T00:06:51.119Z,1008.37
2019-03-10T00:07:51.105Z,1008.42
2019-03-10T00:08:51.082Z,1008.41
2019-03-10T00:09:51.101Z,1008.35
2019-03-10T00:10:51.091Z,1008.41
2019-03-10T00:11:51.041Z,1008.37
2019-03-10T00:12:51.042Z,1008.34
2019-03-10T00:13:51.032Z,1008.33
2019-03-10T00:14:51.044Z,1008.29
2019-03-10T00:15:51.047Z,1008.28
2019-03-10T00:16:50.988Z,1008.26
2019-03-10T00:17:50.980Z,1008.26
2019-03-10T00:18:51.059Z,1008.26
2019-03-10T00:19:50.983Z,1008.22
2019-03-10T00:20:50.951Z,1008.20
2019-03-10T00:21:50.929Z,1008.10
2019-03-10T00:22:50.973Z,1008.13
2019-03-10T00:23:50.911Z,1008.08
2019-03-10T00:24:50.964Z,1008.00
2019-03-10T00:25:50.954Z,1007.99
2019-03-10T00:26:50.898Z,1007.97
2019-03-10T00:27:50.890Z,1007.96
2019-03-10T00:28:50.864Z,1007.99
2019-03-10T00:29:50.853Z,1007.98
2019-03-10T00:30:50.870Z,1007.97
2019-03-10T00:31:50.846Z,1007.98
2019-03-10T00:32:50.831Z,1007.94
2019-03-10T00:33:50.874Z,1007.91
2019-03-10T00:34:50.827Z,1007.91
2019-03-10T00:35:50.839Z,1007.92
2019-03-10T00:36:50.779Z,1007.92
2019-03-10T00:37:50.776Z,1007.95
2019-03-10T00:38:50.748Z,1007.97
2019-03-10T00:39:50.786Z,1007.90
2019-03-10T00:40:50.771Z,1007.87
2019-03-10T00:41:50.764Z,1007.90
2019-03-10T00:42:50.696Z,1007.90
2019-03-10T00:43:50.700Z,1007.87
2019-03-10T00:44:50.687Z,1007.84
2019-03-10T00:45:50.729Z,1007.89
2019-03-10T00:46:50.657Z,1007.87
2019-03-10T00:47:50.667Z,1007.86
2019-03-10T00:48:50.647Z,1007.81
2019-03-10T00:49:50.675Z,1007.76
2019-03-10T00:50:50.631Z,1007.72
2019-03-10T00:51:50.650Z,1007.69
2019-03-10T00:52:50.588Z,1007.68
2019-03-10T00:53:50.603Z,1007.73
2019-03-10T00:54:50.563Z,1007.68
2019-03-10T00:55:50.708Z,1007.74
2019-03-10T00:56:50.546Z,1007.72
2019-03-10T00:57:50.535Z,1007.73
2019-03-10T00:58:50.525Z,1007.66
2019-03-10T00:59:50.504Z,1007.66
2019-03-10T01:00:50.747Z,1007.63
2019-03-10T01:01:50.495Z,1007.62
2019-03-10T01:02:50.483Z,1007.67
2019-03-10T01:03:50.458Z,1007.65
2019-03-10T01:04:50.474Z,1007.65
2019-03-10T01:05:50.455Z,1007.68
2019-03-10T01:06:50.426Z,1007.70
2019-03-10T01:07:50.462Z,1007.67
2019-03-10T01:08:50.411Z,1007.62
2019-03-10T01:09:50.414Z,1007.64
2019-03-10T01:10:50.383Z,1007.63
2019-03-10T01:11:50.396Z,1007.66
2019-03-10T01:12:50.365Z,1007.62
2019-03-10T01:13:50.352Z,1007.62
2019-03-10T01:14:50.335Z,1007.61
2019-03-10T01:15:50.337Z,1007.61
2019-03-10T01:16:50.331Z,1007.56
2019-03-10T01:17:50.308Z,1007.50
2019-03-10T01:18:50.290Z,1007.52
2019-03-10T01:19:50.300Z,1007.52
2019-03-10T01:20:50.272Z,1007.50
2019-03-10T01:21:50.269Z,1007.44
2019-03-10T01:22:50.263Z,1007.45
2019-03-10T01:23:50.250Z,1007.42
2019-03-10T01:24:50.247Z,1007.38
2019-03-10T01:25:50.212Z,1007.35
2019-03-10T01:26:50.212Z,1007.34
2019-03-10T01:27:50.194Z,1007.32
2019-03-10T01:28:50.191Z,1007.32
2019-03-10T01:29:50.176Z,1007.26
2019-03-10T01:30:50.188Z,1007.22
2019-03-10T01:31:50.171Z,1007.18
2019-03-10T01:32:50.135Z,1007.17
2019-03-10T01:33:50.128Z,1007.12
2019-03-10T01:34:50.136Z,1007.15
2019-03-10T01:35:50.165Z,1007.12
2019-03-10T01:36:50.116Z,1007.04
2019-03-10T01:37:50.073Z,1006.96
2019-03-10T01:38:50.084Z,1006.88
2019-03-10T01:39:50.080Z,1006.78
2019-03-10T01:40:50.038Z,1006.74
2019-03-10T01:41:50.045Z,1006.74
2019-03-10T01:42:50.025Z,1006.74
2019-03-10T01:43:50.150Z,1006.71
2019-03-10T01:44:50.010Z,1006.56
2019-03-10T01:45:49.991Z,1006.52
2019-03-10T01:46:50.050Z,1006.52
2019-03-10T01:47:49.959Z,1006.49
2019-03-10T01:48:49.964Z,1006.42
2019-03-10T01:49:49.941Z,1006.43
2019-03-10T01:50:49.935Z,1006.44
2019-03-10T01:51:49.929Z,1006.36
2019-03-10T01:52:49.940Z,1006.30
2019-03-10T01:53:49.901Z,1006.36
2019-03-10T01:54:49.892Z,1006.34
2019-03-10T01:55:50.013Z,1006.27
2019-03-10T01:56:49.871Z,1006.23
2019-03-10T01:57:49.885Z,1006.17
2019-03-10T01:58:49.865Z,1006.11
2019-03-10T01:59:49.874Z,1006.16
2019-03-10T02:00:49.829Z,1006.14
2019-03-10T02:01:49.864Z,1006.10
2019-03-10T02:02:49.816Z,1006.02
2019-03-10T02:03:49.810Z,1005.96
2019-03-10T02:04:49.772Z,1005.95
2019-03-10T02:05:49.786Z,1005.89
2019-03-10T02:06:49.783Z,1005.88
2019-03-10T02:07:49.732Z,1005.85
2019-03-10T02:08:49.749Z,1005.81
2019-03-10T02:09:49.751Z,1005.78
2019-03-10T02:10:49.704Z,1005.71
2019-03-10T02:11:49.691Z,1005.73
2019-03-10T02:12:49.699Z,1005.63
2019-03-10T02:13:49.675Z,1005.50
2019-03-10T02:14:49.662Z,1005.52
2019-03-10T02:15:49.645Z,1005.43
2019-03-10T02:16:49.646Z,1005.42
2019-03-10T02:17:49.659Z,1005.44
2019-03-10T02:18:49.683Z,1005.38
2019-03-10T02:19:49.598Z,1005.35
2019-03-10T02:20:49.591Z,1005.36
2019-03-10T02:21:49.618Z,1005.38
2019-03-10T02:22:49.576Z,1005.36
2019-03-10T02:23:49.554Z,1005.34
2019-03-10T02:24:49.561Z,1005.29
2019-03-10T02:25:49.603Z,1005.29
2019-03-10T02:26:49.524Z,1005.29
2019-03-10T02:27:49.526Z,1005.25
2019-03-10T02:28:49.503Z,1005.19
2019-03-10T02:29:49.551Z,1005.13
2019-03-10T02:30:49.574Z,1005.12
2019-03-10T02:31:49.465Z,1005.10
2019-03-10T02:32:49.622Z,1005.06
2019-03-10T02:33:49.472Z,1005.06
2019-03-10T02:34:49.428Z,1005.04
2019-03-10T02:35:49.424Z,1005.06
2019-03-10T02:36:49.410Z,1005.02
2019-03-10T02:37:49.406Z,1004.99
2019-03-10T02:38:49.462Z,1004.96
2019-03-10T02:39:49.375Z,1004.85
2019-03-10T02:40:49.406Z,1004.87
2019-03-10T02:41:49.443Z,1004.83
2019-03-10T02:42:49.389Z,1004.77
2019-03-10T02:43:49.349Z,1004.69
2019-03-10T02:44:49.376Z,1004.63
2019-03-10T02:45:49.305Z,1004.64
2019-03-10T02:46:49.291Z,1004.58
2019-03-10T02:47:49.307Z,1004.57
2019-03-10T02:48:49.280Z,1004.46
2019-03-10T02:49:49.278Z,1004.45
2019-03-10T02:50:49.257Z,1004.42
2019-03-10T02:51:49.237Z,1004.40
2019-03-10T02:52:49.232Z,1004.41
2019-03-10T02:53:49.223Z,1004.37
2019-03-10T02:54:49.203Z,1004.35
2019-03-10T02:55:49.265Z,1004.36
2019-03-10T02:56:49.245Z,1004.28
2019-03-10T02:57:49.198Z,1004.29
2019-03-10T02:58:49.156Z,1004.28
2019-03-10T02:59:49.148Z,1004.27
2019-03-10T03:00:49.140Z,1004.25
2019-03-10T03:01:49.253Z,1004.25
2019-03-10T03:02:49.134Z,1004.24
2019-03-10T03:03:49.123Z,1004.20
2019-03-10T03:04:49.115Z,1004.15
2019-03-10T03:05:49.091Z,1004.11
2019-03-10T03:06:49.079Z,1004.02
2019-03-10T03:07:49.081Z,1004.04
2019-03-10T03:08:49.080Z,1004.05
2019-03-10T03:09:49.034Z,1004.02
2019-03-10T03:10:49.049Z,1004.00
2019-03-10T03:11:49.015Z,1003.97
2019-03-10T03:12:49.012Z,1003.98
2019-03-10T03:13:49.001Z,1003.94
2019-03-10T03:14:49.038Z,1003.87
2019-03-10T03:15:48.978Z,1003.86
2019-03-10T03:16:48.964Z,1003.78
2019-03-10T03:17:48.969Z,1003.78
2019-03-10T03:18:48.951Z,1003.74
2019-03-10T03:19:48.927Z,1003.75
2019-03-10T03:20:49.007Z,1003.76
2019-03-10T03:21:48.906Z,1003.77
2019-03-10T03:22:48.903Z,1003.81
2019-03-10T03:23:48.891Z,1003.74
2019-03-10T03:24:48.882Z,1003.78
2019-03-10T03:25:49.009Z,1003.71
2019-03-10T03:26:48.874Z,1003.73
2019-03-10T03:27:48.837Z,1003.64
2019-03-10T03:28:48.817Z,1003.66
2019-03-10T03:29:48.807Z,1003.61
2019-03-10T03:30:48.930Z,1003.61
2019-03-10T03:31:48.832Z,1003.59
2019-03-10T03:32:48.787Z,1003.57
2019-03-10T03:33:48.786Z,1003.54
2019-03-10T03:34:48.840Z,1003.41
2019-03-10T03:35:48.801Z,1003.47
2019-03-10T03:36:48.746Z,1003.42
2019-03-10T03:37:48.802Z,1003.34
2019-03-10T03:38:48.716Z,1003.30
2019-03-10T03:39:48.702Z,1003.30
2019-03-10T03:40:48.719Z,1003.27
2019-03-10T03:41:48.685Z,1003.27
2019-03-10T03:42:48.665Z,1003.25
2019-03-10T03:43:48.699Z,1003.25
2019-03-10T03:44:48.694Z,1003.19
2019-03-10T03:45:48.658Z,1003.17
2019-03-10T03:46:48.627Z,1003.11
2019-03-10T03:47:48.717Z,1003.05
2019-03-10T03:48:48.634Z,1003.03
2019-03-10T03:49:48.623Z,1003.04
2019-03-10T03:50:48.601Z,1002.97
2019-03-10T03:51:48.683Z,1002.96
2019-03-10T03:52:48.551Z,1002.89
2019-03-10T03:53:48.573Z,1002.92
2019-03-10T03:54:48.523Z,1002.87
2019-03-10T03:55:48.615Z,1002.87
2019-03-10T03:56:48.509Z,1002.83
2019-03-10T03:57:48.499Z,1002.83
2019-03-10T03:58:48.532Z,1002.79
2019-03-10T03:59:48.501Z,1002.79
2019-03-10T04:00:48.507Z,1002.71
2019-03-10T04:01:48.453Z,1002.72
2019-03-10T04:02:48.436Z,1002.63
2019-03-10T04:03:48.496Z,1002.57
2019-03-10T04:04:48.424Z,1002.54
2019-03-10T04:05:48.399Z,1002.50
2019-03-10T04:06:48.391Z,1002.51
2019-03-10T04:07:48.406Z,1002.45
2019-03-10T04:08:48.395Z,1002.38
2019-03-10T04:09:48.361Z,1002.40
2019-03-10T04:10:48.351Z,1002.37
2019-03-10T04:11:48.349Z,1002.38
2019-03-10T04:12:48.416Z,1002.37
2019-03-10T04:13:48.355Z,1002.30
2019-03-10T04:14:48.314Z,1002.30
2019-03-10T04:15:48.293Z,1002.25
2019-03-10T04:16:48.280Z,1002.22
2019-03-10T04:17:48.267Z,1002.20
2019-03-10T04:18:48.307Z,1002.15
2019-03-10T04:19:48.251Z,1002.12
2019-03-10T04:20:48.237Z,1002.11
2019-03-10T04:21:48.265Z,1002.12
2019-03-10T04:22:48.214Z,1002.06
2019-03-10T04:23:48.227Z,1002.09
2019-03-10T04:24:48.263Z,1002.13
2019-03-10T04:25:48.265Z,1002.07
2019-03-10T04:26:48.179Z,1002.05
2019-03-10T04:27:48.157Z,1002.04
2019-03-10T04:28:48.163Z,1002.01
2019-03-10T04:29:48.136Z,1002.03
2019-03-10T04:30:48.155Z,1001.91
2019-03-10T04:31:48.125Z,1001.87
2019-03-10T04:32:48.129Z,1001.88
2019-03-10T04:33:48.121Z,1001.80
2019-03-10T04:34:48.075Z,1001.78
2019-03-10T04:35:48.102Z,1001.74
2019-03-10T04:36:48.125Z,1001.68
2019-03-10T04:37:48.118Z,1001.68
2019-03-10T04:38:48.039Z,1001.64
2019-03-10T04:39:48.039Z,1001.63
2019-03-10T04:40:48.016Z,1001.61
2019-03-10T04:41:48.001Z,1001.54
2019-03-10T04:42:47.991Z,1001.51
2019-03-10T04:43:47.990Z,1001.48
2019-03-10T04:44:48.047Z,1001.44
2019-03-10T04:45:47.966Z,1001.46
2019-03-10T04:46:47.935Z,1001.41
2019-03-10T04:47:47.949Z,1001.36
2019-03-10T04:48:47.916Z,1001.34
2019-03-10T04:49:47.911Z,1001.31
2019-03-10T04:50:47.903Z,1001.29
2019-03-10T04:51:47.883Z,1001.29
2019-03-10T04:52:47.870Z,1001.21
2019-03-10T04:53:47.873Z,1001.14
2019-03-10T04:54:47.872Z,1001.09
2019-03-10T04:55:47.906Z,1001.13
2019-03-10T04:56:47.832Z,1001.03
2019-03-10T04:57:47.876Z,1000.97
2019-03-10T04:58:47.822Z,1001.00
2019-03-10T04:59:47.809Z,1000.91
2019-03-10T05:00:47.827Z,1000.90
2019-03-10T05:01:47.840Z,1000.82
2019-03-10T05:02:47.794Z,1000.77
2019-03-10T05:03:47.745Z,1000.73
2019-03-10T05:04:47.766Z,1000.73
2019-03-10T05:05:47.719Z,1000.68
2019-03-10T05:06:47.789Z,1000.65
2019-03-10T05:07:47.711Z,1000.62
2019-03-10T05:08:47.724Z,1000.56
2019-03-10T05:09:47.763Z,1000.55
2019-03-10T05:10:47.713Z,1000.54
2019-03-10T05:11:47.682Z,1000.49
2019-03-10T05:12:47.725Z,1000.46
2019-03-10T05:13:47.709Z,1000.43
2019-03-10T05:14:47.668Z,1000.30
2019-03-10T05:15:47.616Z,1000.21
2019-03-10T05:16:47.637Z,1000.17
2019-03-10T05:17:47.586Z,1000.11
2019-03-10T05:18:47.572Z,1000.05
2019-03-10T05:19:47.715Z,1000.03
2019-03-10T05:20:47.551Z,1000.01
2019-03-10T05:21:47.549Z,1000.01
2019-03-10T05:22:47.529Z,999.95
2019-03-10T05:23:47.518Z,999.94
2019-03-10T05:24:47.526Z,999.83
2019-03-10T05:25:47.538Z,999.82
2019-03-10T05:26:47.499Z,999.76
2019-03-10T05:27:47.478Z,999.72
2019-03-10T05:28:47.460Z,999.65
2019-03-10T05:29:47.467Z,999.56
2019-03-10T05:30:47.437Z,999.51
2019-03-10T05:31:47.432Z,999.47
2019-03-10T05:32:47.422Z,999.34
2019-03-10T05:33:47.434Z,999.28
2019-03-10T05:34:47.401Z,999.15
2019-03-10T05:35:47.384Z,999.15
2019-03-10T05:36:47.372Z,999.10
2019-03-10T05:37:47.359Z,999.07
2019-03-10T05:38:47.348Z,999.02
2019-03-10T05:39:47.357Z,999.09
2019-03-10T05:40:47.328Z,999.06
2019-03-10T05:41:47.371Z,999.04
2019-03-10T05:42:47.303Z,999.04
2019-03-10T05:43:47.289Z,999.04
2019-03-10T05:44:47.309Z,998.98
2019-03-10T05:45:47.269Z,998.96
2019-03-10T05:46:47.262Z,998.92
2019-03-10T05:47:47.297Z,998.87
2019-03-10T05:48:47.248Z,998.85
2019-03-10T05:49:47.221Z,998.83
2019-03-10T05:50:47.222Z,998.80
2019-03-10T05:51:47.204Z,998.74
2019-03-10T05:52:47.190Z,998.69
2019-03-10T05:53:47.188Z,998.64
2019-03-10T05:54:47.173Z,998.56
2019-03-10T05:55:47.178Z,998.52
2019-03-10T05:56:47.147Z,998.49
2019-03-10T05:57:47.132Z,998.48
2019-03-10T05:58:47.120Z,998.47
2019-03-10T05:59:47.123Z,998.45
2019-03-10T06:00:47.124Z,998.45
2019-03-10T06:01:47.088Z,998.46
2019-03-10T06:02:47.091Z,998.41
2019-03-10T06:03:47.068Z,998.45
2019-03-10T06:04:47.095Z,998.42
2019-03-10T06:05:47.071Z,998.20
2019-03-10T06:06:47.043Z,998.19
2019-03-10T06:07:47.054Z,998.36
2019-03-10T06:08:47.127Z,998.43
2019-03-10T06:09:47.006Z,998.20
2019-03-10T06:10:47.049Z,998.05
2019-03-10T06:11:47.033Z,997.86
2019-03-10T06:12:47.003Z,997.80
2019-03-10T06:13:47.014Z,997.90
2019-03-10T06:14:46.977Z,998.08
2019-03-10T06:15:46.995Z,998.32
2019-03-10T06:16:46.955Z,998.43
2019-03-10T06:17:47.020Z,998.32
2019-03-10T06:18:46.902Z,998.21
2019-03-10T06:19:46.891Z,998.11
2019-03-10T06:20:46.951Z,997.82
2019-03-10T06:21:46.884Z,997.79
2019-03-10T06:22:46.894Z,997.82
2019-03-10T06:23:46.872Z,997.81
2019-03-10T06:24:46.886Z,997.77
2019-03-10T06:25:46.926Z,997.81
2019-03-10T06:26:46.805Z,997.72
2019-03-10T06:27:46.818Z,997.75
2019-03-10T06:28:46.787Z,997.69
2019-03-10T06:29:46.775Z,997.60
2019-03-10T06:30:46.768Z,997.67
2019-03-10T06:31:46.769Z,997.68
2019-03-10T06:32:46.736Z,997.59
2019-03-10T06:33:46.729Z,997.52
2019-03-10T06:34:46.740Z,997.51
2019-03-10T06:35:46.713Z,997.45
2019-03-10T06:36:46.714Z,997.38
2019-03-10T06:37:46.697Z,997.23
2019-03-10T06:38:46.678Z,997.20
2019-03-10T06:39:46.686Z,997.28
2019-03-10T06:40:46.694Z,997.22
2019-03-10T06:41:46.644Z,997.21
2019-03-10T06:42:46.645Z,997.16
2019-03-10T06:43:46.672Z,997.10
2019-03-10T06:44:46.643Z,997.02
2019-03-10T06:45:46.625Z,997.03
2019-03-10T06:46:46.591Z,997.07
2019-03-10T06:47:46.573Z,997.06
2019-03-10T06:48:46.584Z,996.74
2019-03-10T06:49:46.548Z,996.56
2019-03-10T06:50:46.534Z,996.69
2019-03-10T06:51:46.539Z,996.85
2019-03-10T06:52:46.521Z,996.92
2019-03-10T06:53:46.522Z,996.75
2019-03-10T06:54:46.513Z,996.53
2019-03-10T06:55:51.209Z,996.56
2019-03-10T06:56:46.492Z,996.78
2019-03-10T06:57:46.486Z,996.74
2019-03-10T06:58:46.480Z,996.76
2019-03-10T06:59:46.437Z,996.91
2019-03-10T07:00:46.474Z,996.86
2019-03-10T07:01:46.478Z,996.70
2019-03-10T07:02:46.429Z,996.62
2019-03-10T07:03:46.413Z,996.60
2019-03-10T07:04:46.382Z,996.57
2019-03-10T07:05:46.431Z,996.61
2019-03-10T07:06:46.390Z,996.46
2019-03-10T07:07:46.370Z,996.52
2019-03-10T07:08:46.352Z,996.47
2019-03-10T07:09:46.331Z,996.40
2019-03-10T07:10:46.315Z,996.35
2019-03-10T07:11:46.327Z,996.28
2019-03-10T07:12:46.291Z,996.26
2019-03-10T07:13:46.302Z,996.14
2019-03-10T07:14:46.299Z,996.21
2019-03-10T07:15:46.255Z,996.16
2019-03-10T07:16:46.249Z,996.19
2019-03-10T07:17:46.397Z,996.09
2019-03-10T07:18:46.254Z,995.98
2019-03-10T07:19:46.224Z,995.96
2019-03-10T07:20:46.201Z,995.90
2019-03-10T07:21:46.262Z,995.95
2019-03-10T07:22:46.196Z,995.97
2019-03-10T07:23:46.182Z,995.91
2019-03-10T07:24:46.157Z,995.86
2019-03-10T07:25:46.221Z,995.82
2019-03-10T07:26:46.155Z,995.84
2019-03-10T07:27:46.119Z,995.87
2019-03-10T07:28:46.135Z,995.87
2019-03-10T07:29:46.159Z,995.88
2019-03-10T07:30:46.081Z,995.83
2019-03-10T07:31:46.085Z,995.79
2019-03-10T07:32:46.076Z,995.81
2019-03-10T07:33:46.057Z,995.81
2019-03-10T07:34:46.061Z,995.75
2019-03-10T07:35:46.065Z,995.65
2019-03-10T07:36:46.050Z,995.63
2019-03-10T07:37:46.005Z,995.57
2019-03-10T07:38:45.991Z,995.60
2019-03-10T07:39:45.989Z,995.66
2019-03-10T07:40:46.009Z,995.58
2019-03-10T07:41:45.991Z,995.60
2019-03-10T07:42:45.952Z,995.61
2019-03-10T07:43:45.990Z,995.60
2019-03-10T07:44:45.947Z,995.57
2019-03-10T07:45:45.926Z,995.49
2019-03-10T07:46:46.178Z,995.47
2019-03-10T07:47:45.916Z,995.58
2019-03-10T07:48:45.916Z,995.58
2019-03-10T07:49:45.979Z,995.73
2019-03-10T07:50:45.907Z,995.57
2019-03-10T07:51:45.841Z,995.50
2019-03-10T07:52:45.864Z,995.48
2019-03-10T07:53:45.881Z,995.38
2019-03-10T07:54:45.812Z,995.34
2019-03-10T07:55:45.856Z,995.42
2019-03-10T07:56:45.799Z,995.44
2019-03-10T07:57:45.797Z,995.38
2019-03-10T07:58:45.768Z,995.42
2019-03-10T07:59:46.029Z,995.36
2019-03-10T08:00:45.755Z,995.38
2019-03-10T08:01:45.771Z,995.42
2019-03-10T08:02:45.785Z,995.39
2019-03-10T08:03:45.735Z,995.36
2019-03-10T08:04:45.698Z,995.38
2019-03-10T08:05:45.700Z,995.36
2019-03-10T08:06:45.727Z,995.38
2019-03-10T08:07:45.675Z,995.36
2019-03-10T08:08:45.650Z,995.37
2019-03-10T08:09:45.651Z,995.37
2019-03-10T08:10:45.667Z,995.41
2019-03-10T08:11:45.620Z,995.42
2019-03-10T08:12:45.628Z,995.38
2019-03-10T08:13:45.602Z,995.48
2019-03-10T08:14:45.604Z,995.45
2019-03-10T08:15:45.586Z,995.43
2019-03-10T08:16:45.599Z,995.40
2019-03-10T08:17:45.560Z,995.31
2019-03-10T08:18:45.541Z,995.31
2019-03-10T08:19:45.525Z,995.32
2019-03-10T08:20:45.519Z,995.33
2019-03-10T08:21:45.501Z,995.27
2019-03-10T08:22:45.548Z,995.26
2019-03-10T08:23:45.484Z,995.24
2019-03-10T08:24:45.473Z,995.18
2019-03-10T08:25:45.469Z,995.12
2019-03-10T08:26:45.475Z,995.12
2019-03-10T08:27:45.462Z,995.08
2019-03-10T08:28:45.434Z,995.05
2019-03-10T08:29:45.427Z,994.92
2019-03-10T08:30:45.400Z,994.84
2019-03-10T08:31:45.392Z,994.88
2019-03-10T08:32:45.413Z,994.92
2019-03-10T08:33:45.369Z,995.04
2019-03-10T08:34:45.373Z,995.10
2019-03-10T08:35:45.421Z,995.14
2019-03-10T08:36:45.355Z,995.15
2019-03-10T08:37:45.360Z,995.16
2019-03-10T08:38:45.391Z,995.16
2019-03-10T08:39:45.366Z,995.15
2019-03-10T08:40:45.329Z,995.21
2019-03-10T08:41:45.317Z,995.27
2019-03-10T08:42:45.280Z,995.21
2019-03-10T08:43:45.268Z,995.28
2019-03-10T08:44:45.269Z,995.26
2019-03-10T08:45:45.348Z,995.27
2019-03-10T08:46:45.222Z,995.26
2019-03-10T08:47:45.221Z,995.29
2019-03-10T08:48:45.237Z,995.25
2019-03-10T08:49:45.702Z,995.25
2019-03-10T08:50:45.174Z,995.27
2019-03-10T08:51:45.200Z,995.27
2019-03-10T08:52:45.170Z,995.08
2019-03-10T08:53:45.151Z,995.12
2019-03-10T08:54:45.132Z,995.13
2019-03-10T08:55:45.231Z,995.06
2019-03-10T08:56:45.115Z,995.02
2019-03-10T08:57:45.116Z,995.04
2019-03-10T08:58:45.106Z,995.02
2019-03-10T08:59:45.087Z,995.00
2019-03-10T09:00:45.082Z,995.01
2019-03-10T09:01:45.101Z,994.98
2019-03-10T09:02:45.040Z,995.06
2019-03-10T09:03:45.056Z,994.93
2019-03-10T09:04:45.043Z,994.95
2019-03-10T09:05:45.015Z,995.02
2019-03-10T09:06:45.018Z,995.04
2019-03-10T09:07:45.055Z,995.00
2019-03-10T09:08:44.998Z,995.00
2019-03-10T09:09:45.986Z,994.99
2019-03-10T09:10:44.957Z,994.94
2019-03-10T09:11:44.958Z,994.97
2019-03-10T09:12:44.936Z,994.89
2019-03-10T09:13:44.947Z,994.96
2019-03-10T09:14:44.924Z,994.95
2019-03-10T09:15:44.900Z,994.97
2019-03-10T09:16:44.917Z,994.92
2019-03-10T09:17:44.881Z,994.95
2019-03-10T09:18:44.906Z,994.85
2019-03-10T09:19:44.858Z,994.93
2019-03-10T09:20:44.854Z,994.92
2019-03-10T09:21:44.873Z,994.97
2019-03-10T09:22:44.857Z,994.90
2019-03-10T09:23:44.807Z,994.83
2019-03-10T09:24:44.895Z,994.86
2019-03-10T09:25:44.780Z,994.86
2019-03-10T09:26:44.783Z,994.78
2019-03-10T09:27:44.795Z,994.83
2019-03-10T09:28:44.773Z,994.85
2019-03-10T09:29:44.773Z,994.76
2019-03-10T09:30:44.759Z,994.82
2019-03-10T09:31:44.713Z,994.79
2019-03-10T09:32:44.770Z,994.74
2019-03-10T09:33:44.702Z,994.76
2019-03-10T09:34:44.689Z,994.74
2019-03-10T09:35:44.757Z,994.69
2019-03-10T09:36:44.655Z,994.72
2019-03-10T09:37:44.647Z,994.68
2019-03-10T09:38:44.645Z,994.64
2019-03-10T09:39:44.635Z,994.63
2019-03-10T09:40:44.610Z,994.62
2019-03-10T09:41:44.598Z,994.68
2019-03-10T09:42:44.587Z,994.62
2019-03-10T09:43:44.601Z,994.64
2019-03-10T09:44:44.580Z,994.51
2019-03-10T09:45:44.559Z,994.56
2019-03-10T09:46:44.546Z,994.50
2019-03-10T09:47:44.554Z,994.50
2019-03-10T09:48:44.524Z,994.51
2019-03-10T09:49:44.570Z,994.47
2019-03-10T09:50:44.498Z,994.53
2019-03-10T09:51:44.485Z,994.57
2019-03-10T09:52:44.473Z,994.68
2019-03-10T09:53:44.467Z,994.53
2019-03-10T09:54:44.463Z,994.64
2019-03-10T09:55:44.462Z,994.48
2019-03-10T09:56:44.443Z,994.65
2019-03-10T09:57:44.433Z,994.50
2019-03-10T09:58:44.423Z,994.44
2019-03-10T09:59:44.405Z,994.56
2019-03-10T10:00:44.456Z,994.55
2019-03-10T10:01:44.384Z,994.53
2019-03-10T10:02:44.368Z,994.43
2019-03-10T10:03:44.361Z,994.53
2019-03-10T10:04:44.363Z,994.51
2019-03-10T10:05:44.335Z,994.54
2019-03-10T10:06:44.324Z,994.54
2019-03-10T10:07:44.326Z,994.52
2019-03-10T10:08:45.349Z,994.54
2019-03-10T10:09:44.296Z,994.55
2019-03-10T10:10:44.288Z,994.53
2019-03-10T10:11:44.261Z,994.46
2019-03-10T10:12:44.266Z,994.45
2019-03-10T10:13:44.244Z,994.41
2019-03-10T10:14:44.257Z,994.32
2019-03-10T10:15:44.218Z,994.37
2019-03-10T10:16:44.212Z,994.28
2019-03-10T10:17:44.212Z,994.26
2019-03-10T10:18:44.194Z,994.29
2019-03-10T10:19:44.202Z,994.18
2019-03-10T10:20:44.220Z,994.12
2019-03-10T10:21:44.166Z,994.26
2019-03-10T10:22:44.299Z,994.18
2019-03-10T10:23:44.130Z,994.21
2019-03-10T10:24:44.138Z,994.21
2019-03-10T10:25:44.191Z,994.20
2019-03-10T10:26:44.122Z,994.11
2019-03-10T10:27:44.084Z,994.32
2019-03-10T10:28:44.074Z,994.25
2019-03-10T10:29:44.056Z,994.22
2019-03-10T10:30:44.071Z,994.29
2019-03-10T10:31:44.131Z,994.17
2019-03-10T10:32:44.027Z,994.15
2019-03-10T10:33:44.015Z,994.13
2019-03-10T10:34:44.016Z,994.16
2019-03-10T10:35:43.999Z,994.19
2019-03-10T10:36:43.985Z,994.19
2019-03-10T10:37:43.992Z,993.96
2019-03-10T10:38:43.987Z,994.12
2019-03-10T10:39:43.981Z,994.05
2019-03-10T10:40:44.016Z,993.94
2019-03-10T10:41:43.977Z,994.12
2019-03-10T10:42:44.017Z,994.17
2019-03-10T10:43:44.015Z,994.20
2019-03-10T10:44:43.936Z,994.25
2019-03-10T10:45:43.967Z,994.33
2019-03-10T10:46:43.873Z,994.30
2019-03-10T10:47:43.867Z,994.43
2019-03-10T10:48:43.857Z,994.32
2019-03-10T10:49:43.837Z,994.38
2019-03-10T10:50:43.833Z,994.35
2019-03-10T10:51:43.823Z,994.29
2019-03-10T10:52:43.811Z,994.09
2019-03-10T10:53:43.812Z,994.06
2019-03-10T10:54:43.785Z,994.06
2019-03-10T10:55:43.815Z,994.14
2019-03-10T10:56:43.776Z,994.04
2019-03-10T10:57:43.744Z,994.06
2019-03-10T10:58:43.738Z,994.11
2019-03-10T10:59:43.729Z,994.07
2019-03-10T11:00:43.833Z,994.16
2019-03-10T11:01:43.716Z,993.99
2019-03-10T11:02:43.700Z,994.09
2019-03-10T11:03:43.694Z,993.99
2019-03-10T11:04:43.670Z,993.99
2019-03-10T11:05:43.683Z,993.96
2019-03-10T11:06:43.673Z,993.96
2019-03-10T11:07:43.645Z,993.98
2019-03-10T11:08:43.652Z,993.86
2019-03-10T11:09:43.620Z,993.94
2019-03-10T11:10:43.612Z,993.82
2019-03-10T11:11:43.601Z,993.83
2019-03-10T11:12:43.576Z,993.85
2019-03-10T11:13:43.665Z,993.85
2019-03-10T11:14:43.554Z,993.69
2019-03-10T11:15:43.546Z,993.74
2019-03-10T11:16:45.414Z,993.73
2019-03-10T11:17:43.524Z,993.75
2019-03-10T11:18:43.507Z,993.73
2019-03-10T11:19:43.522Z,993.79
2019-03-10T11:20:43.493Z,993.77
2019-03-10T11:21:43.494Z,993.79
2019-03-10T11:22:43.466Z,993.76
2019-03-10T11:23:43.585Z,993.78
2019-03-10T11:24:43.448Z,993.82
2019-03-10T11:25:43.552Z,993.74
2019-03-10T11:26:43.439Z,993.76
2019-03-10T11:27:43.421Z,993.73
2019-03-10T11:28:43.402Z,993.69
2019-03-10T11:29:43.391Z,993.68
2019-03-10T11:30:43.379Z,993.63
2019-03-10T11:31:43.432Z,993.58
2019-03-10T11:32:43.370Z,993.64
2019-03-10T11:33:43.367Z,993.66
2019-03-10T11:34:43.383Z,993.70
2019-03-10T11:35:43.372Z,993.54
2019-03-10T11:36:43.359Z,993.57
2019-03-10T11:37:43.297Z,993.63
2019-03-10T11:38:43.312Z,993.52
2019-03-10T11:39:43.281Z,993.54
2019-03-10T11:40:43.284Z,993.41
2019-03-10T11:41:43.367Z,993.48
2019-03-10T11:42:43.246Z,993.45
2019-03-10T11:43:43.243Z,993.49
2019-03-10T11:44:43.216Z,993.50
2019-03-10T11:45:43.209Z,993.55
2019-03-10T11:46:43.227Z,993.79
2019-03-10T11:47:43.219Z,993.74
2019-03-10T11:48:43.272Z,993.70
2019-03-10T11:49:43.216Z,993.85
2019-03-10T11:50:43.177Z,993.87
2019-03-10T11:51:43.280Z,993.85
2019-03-10T11:52:43.136Z,993.80
2019-03-10T11:53:43.124Z,993.81
2019-03-10T11:54:43.113Z,993.89
2019-03-10T11:55:43.190Z,993.95
2019-03-10T11:56:43.127Z,993.89
2019-03-10T11:57:43.196Z,994.03
2019-03-10T11:58:43.075Z,994.03
2019-03-10T11:59:43.049Z,993.92
2019-03-10T12:00:43.068Z,994.06
2019-03-10T12:01:43.055Z,994.04
2019-03-10T12:02:43.032Z,994.11
2019-03-10T12:03:43.012Z,994.08
2019-03-10T12:04:42.998Z,994.12
2019-03-10T12:05:42.985Z,994.02
2019-03-10T12:06:43.038Z,994.09
2019-03-10T12:07:42.967Z,994.07
2019-03-10T12:08:42.953Z,994.08
2019-03-10T12:09:42.970Z,994.19
2019-03-10T12:10:42.983Z,994.10
2019-03-10T12:11:42.934Z,994.15
2019-03-10T12:12:42.914Z,994.10
2019-03-10T12:13:42.918Z,994.07
2019-03-10T12:14:42.905Z,994.15
2019-03-10T12:15:42.909Z,994.16
2019-03-10T12:16:42.988Z,994.12
2019-03-10T12:17:42.846Z,994.17
2019-03-10T12:18:42.831Z,994.15